sensor_id;sensor_type;location;lat;lon;timestamp;P1;durP1;ratioP1;P2;durP2;ratioP2
36291;SDS011;22327;51.208;6.418;2023-04-01T00:00:56;4.45;;;0.98;;
36291;SDS011;22327;51.208;6.418;2023-04-01T00:03:23;3.22;;;1.02;;
36291;SDS011;22327;51.208;6.418;2023-04-01T00:05:50;2.47;;;0.73;;
36291;SDS011;22327;51.208;6.418;2023-04-01T00:08:15;2.42;;;1.15;;
36291;SDS011;22327;51.208;6.418;2023-04-01T00:10:41;5.40;;;1.00;;
36291;SDS011;22327;51.208;6.418;2023-04-01T00:13:07;3.38;;;0.90;;
36291;SDS011;22327;51.208;6.418;2023-04-01T00:15:34;2.70;;;0.88;;
36291;SDS011;22327;51.208;6.418;2023-04-01T00:18:00;2.40;;;1.10;;
36291;SDS011;22327;51.208;6.418;2023-04-01T00:20:26;3.70;;;1.05;;
36291;SDS011;22327;51.208;6.418;2023-04-01T00:22:51;2.97;;;0.90;;
36291;SDS011;22327;51.208;6.418;2023-04-01T00:25:17;5.10;;;0.95;;
36291;SDS011;22327;51.208;6.418;2023-04-01T00:27:43;1.52;;;0.90;;
36291;SDS011;22327;51.208;6.418;2023-04-01T00:30:09;2.88;;;1.10;;
36291;SDS011;22327;51.208;6.418;2023-04-01T00:32:35;3.08;;;0.80;;
36291;SDS011;22327;51.208;6.418;2023-04-01T00:35:01;2.00;;;0.50;;
36291;SDS011;22327;51.208;6.418;2023-04-01T00:37:27;3.95;;;1.75;;
36291;SDS011;22327;51.208;6.418;2023-04-01T00:39:53;2.95;;;1.30;;
36291;SDS011;22327;51.208;6.418;2023-04-01T00:42:19;4.63;;;1.67;;
36291;SDS011;22327;51.208;6.418;2023-04-01T00:44:47;5.07;;;1.20;;
36291;SDS011;22327;51.208;6.418;2023-04-01T00:47:15;3.90;;;0.70;;
36291;SDS011;22327;51.208;6.418;2023-04-01T00:49:42;3.20;;;1.00;;
36291;SDS011;22327;51.208;6.418;2023-04-01T00:52:12;3.90;;;1.38;;
36291;SDS011;22327;51.208;6.418;2023-04-01T00:54:41;1.70;;;0.60;;
36291;SDS011;22327;51.208;6.418;2023-04-01T00:57:12;2.80;;;0.73;;
36291;SDS011;22327;51.208;6.418;2023-04-01T00:59:47;2.75;;;0.85;;
36291;SDS011;22327;51.208;6.418;2023-04-01T01:02:15;3.28;;;0.60;;
36291;SDS011;22327;51.208;6.418;2023-04-01T01:04:42;3.10;;;0.80;;
36291;SDS011;22327;51.208;6.418;2023-04-01T01:10:17;3.22;;;1.10;;
36291;SDS011;22327;51.208;6.418;2023-04-01T01:12:58;4.55;;;1.10;;
36291;SDS011;22327;51.208;6.418;2023-04-01T01:16:11;1.88;;;0.68;;
36291;SDS011;22327;51.208;6.418;2023-04-01T01:18:48;3.20;;;1.38;;
36291;SDS011;22327;51.208;6.418;2023-04-01T01:21:46;2.85;;;0.45;;
36291;SDS011;22327;51.208;6.418;2023-04-01T01:35:24;2.30;;;0.52;;
36291;SDS011;22327;51.208;6.418;2023-04-01T01:37:59;1.17;;;0.60;;
36291;SDS011;22327;51.208;6.418;2023-04-01T01:40:27;3.55;;;0.70;;
36291;SDS011;22327;51.208;6.418;2023-04-01T01:42:56;3.83;;;0.68;;
36291;SDS011;22327;51.208;6.418;2023-04-01T01:45:26;2.80;;;0.68;;
36291;SDS011;22327;51.208;6.418;2023-04-01T01:47:52;1.98;;;0.80;;
36291;SDS011;22327;51.208;6.418;2023-04-01T01:50:20;2.75;;;0.65;;
36291;SDS011;22327;51.208;6.418;2023-04-01T01:52:47;1.38;;;0.55;;
36291;SDS011;22327;51.208;6.418;2023-04-01T01:55:27;2.92;;;0.80;;
36291;SDS011;22327;51.208;6.418;2023-04-01T01:57:55;4.75;;;1.00;;
36291;SDS011;22327;51.208;6.418;2023-04-01T02:00:24;1.90;;;0.55;;
36291;SDS011;22327;51.208;6.418;2023-04-01T02:02:51;2.00;;;0.60;;
36291;SDS011;22327;51.208;6.418;2023-04-01T02:05:19;1.63;;;0.52;;
36291;SDS011;22327;51.208;6.418;2023-04-01T02:07:48;1.33;;;0.50;;
36291;SDS011;22327;51.208;6.418;2023-04-01T02:10:18;1.10;;;0.50;;
36291;SDS011;22327;51.208;6.418;2023-04-01T02:12:47;2.17;;;0.57;;
36291;SDS011;22327;51.208;6.418;2023-04-01T02:15:14;2.63;;;0.40;;
36291;SDS011;22327;51.208;6.418;2023-04-01T02:17:43;4.53;;;0.80;;
36291;SDS011;22327;51.208;6.418;2023-04-01T02:20:20;1.13;;;0.40;;
36291;SDS011;22327;51.208;6.418;2023-04-01T02:22:49;2.83;;;0.70;;
36291;SDS011;22327;51.208;6.418;2023-04-01T02:25:20;2.67;;;0.80;;
36291;SDS011;22327;51.208;6.418;2023-04-01T02:27:51;2.20;;;0.60;;
36291;SDS011;22327;51.208;6.418;2023-04-01T02:30:20;2.78;;;0.77;;
36291;SDS011;22327;51.208;6.418;2023-04-01T02:32:46;2.47;;;0.70;;
36291;SDS011;22327;51.208;6.418;2023-04-01T02:35:13;6.75;;;1.60;;
36291;SDS011;22327;51.208;6.418;2023-04-01T02:37:41;2.25;;;0.90;;
36291;SDS011;22327;51.208;6.418;2023-04-01T02:40:10;3.38;;;1.08;;
36291;SDS011;22327;51.208;6.418;2023-04-01T02:42:37;1.58;;;0.70;;
36291;SDS011;22327;51.208;6.418;2023-04-01T02:45:03;1.38;;;0.70;;
36291;SDS011;22327;51.208;6.418;2023-04-01T02:47:29;2.90;;;1.20;;
36291;SDS011;22327;51.208;6.418;2023-04-01T02:49:55;1.58;;;0.75;;
36291;SDS011;22327;51.208;6.418;2023-04-01T02:52:24;2.38;;;0.70;;
36291;SDS011;22327;51.208;6.418;2023-04-01T02:54:50;3.58;;;0.90;;
36291;SDS011;22327;51.208;6.418;2023-04-01T02:57:16;2.67;;;1.20;;
36291;SDS011;22327;51.208;6.418;2023-04-01T02:59:41;2.17;;;0.70;;
36291;SDS011;22327;51.208;6.418;2023-04-01T03:02:07;2.78;;;0.80;;
36291;SDS011;22327;51.208;6.418;2023-04-01T03:04:32;1.35;;;0.80;;
36291;SDS011;22327;51.208;6.418;2023-04-01T03:06:58;0.50;;;0.50;;
36291;SDS011;22327;51.208;6.418;2023-04-01T03:09:23;1.52;;;0.60;;
36291;SDS011;22327;51.208;6.418;2023-04-01T03:11:49;2.80;;;0.98;;
36291;SDS011;22327;51.208;6.418;2023-04-01T03:14:15;2.20;;;0.60;;
36291;SDS011;22327;51.208;6.418;2023-04-01T03:16:40;5.93;;;2.03;;
36291;SDS011;22327;51.208;6.418;2023-04-01T03:19:06;1.65;;;0.90;;
36291;SDS011;22327;51.208;6.418;2023-04-01T03:21:31;2.88;;;0.90;;
36291;SDS011;22327;51.208;6.418;2023-04-01T03:23:57;2.15;;;0.93;;
36291;SDS011;22327;51.208;6.418;2023-04-01T03:26:23;3.05;;;0.80;;
36291;SDS011;22327;51.208;6.418;2023-04-01T03:28:51;3.38;;;0.70;;
36291;SDS011;22327;51.208;6.418;2023-04-01T03:31:17;2.97;;;0.75;;
36291;SDS011;22327;51.208;6.418;2023-04-01T03:33:43;3.95;;;1.05;;
36291;SDS011;22327;51.208;6.418;2023-04-01T03:36:08;2.55;;;1.83;;
36291;SDS011;22327;51.208;6.418;2023-04-01T03:38:36;2.25;;;1.00;;
36291;SDS011;22327;51.208;6.418;2023-04-01T03:41:02;2.60;;;1.00;;
36291;SDS011;22327;51.208;6.418;2023-04-01T03:43:28;2.05;;;1.40;;
36291;SDS011;22327;51.208;6.418;2023-04-01T03:45:54;3.38;;;1.10;;
36291;SDS011;22327;51.208;6.418;2023-04-01T03:48:20;1.75;;;1.13;;
36291;SDS011;22327;51.208;6.418;2023-04-01T03:50:45;1.25;;;1.00;;
36291;SDS011;22327;51.208;6.418;2023-04-01T03:53:11;3.05;;;1.00;;
36291;SDS011;22327;51.208;6.418;2023-04-01T03:55:37;1.88;;;1.20;;
36291;SDS011;22327;51.208;6.418;2023-04-01T03:58:04;1.95;;;1.20;;
36291;SDS011;22327;51.208;6.418;2023-04-01T04:00:30;4.22;;;2.08;;
36291;SDS011;22327;51.208;6.418;2023-04-01T04:02:56;1.77;;;1.02;;
36291;SDS011;22327;51.208;6.418;2023-04-01T04:05:23;1.95;;;1.02;;
36291;SDS011;22327;51.208;6.418;2023-04-01T04:07:49;3.92;;;1.20;;
36291;SDS011;22327;51.208;6.418;2023-04-01T04:10:16;2.40;;;1.40;;
36291;SDS011;22327;51.208;6.418;2023-04-01T04:12:41;2.40;;;1.33;;
36291;SDS011;22327;51.208;6.418;2023-04-01T04:15:07;3.03;;;1.30;;
36291;SDS011;22327;51.208;6.418;2023-04-01T04:17:33;3.47;;;1.50;;
36291;SDS011;22327;51.208;6.418;2023-04-01T04:19:59;4.10;;;2.20;;
36291;SDS011;22327;51.208;6.418;2023-04-01T04:22:24;2.47;;;1.63;;
36291;SDS011;22327;51.208;6.418;2023-04-01T04:24:50;2.10;;;1.48;;
36291;SDS011;22327;51.208;6.418;2023-04-01T04:27:16;3.20;;;1.42;;
36291;SDS011;22327;51.208;6.418;2023-04-01T04:29:41;2.85;;;1.65;;
36291;SDS011;22327;51.208;6.418;2023-04-01T04:32:07;4.07;;;1.42;;
36291;SDS011;22327;51.208;6.418;2023-04-01T04:34:33;2.17;;;1.38;;
36291;SDS011;22327;51.208;6.418;2023-04-01T04:36:58;3.47;;;1.63;;
36291;SDS011;22327;51.208;6.418;2023-04-01T04:39:24;1.75;;;1.10;;
36291;SDS011;22327;51.208;6.418;2023-04-01T04:41:50;1.98;;;1.17;;
36291;SDS011;22327;51.208;6.418;2023-04-01T04:44:15;2.13;;;1.30;;
36291;SDS011;22327;51.208;6.418;2023-04-01T04:46:41;2.83;;;1.25;;
36291;SDS011;22327;51.208;6.418;2023-04-01T04:49:06;1.70;;;1.30;;
36291;SDS011;22327;51.208;6.418;2023-04-01T04:51:32;1.83;;;1.30;;
36291;SDS011;22327;51.208;6.418;2023-04-01T04:54:04;1.60;;;1.02;;
36291;SDS011;22327;51.208;6.418;2023-04-01T04:56:31;1.65;;;1.40;;
36291;SDS011;22327;51.208;6.418;2023-04-01T04:58:57;2.67;;;1.35;;
36291;SDS011;22327;51.208;6.418;2023-04-01T05:01:23;3.40;;;1.75;;
36291;SDS011;22327;51.208;6.418;2023-04-01T05:03:49;2.17;;;1.63;;
36291;SDS011;22327;51.208;6.418;2023-04-01T05:06:15;3.00;;;2.42;;
36291;SDS011;22327;51.208;6.418;2023-04-01T05:08:41;3.45;;;2.35;;
36291;SDS011;22327;51.208;6.418;2023-04-01T05:11:12;3.70;;;2.10;;
36291;SDS011;22327;51.208;6.418;2023-04-01T05:13:39;3.17;;;1.92;;
36291;SDS011;22327;51.208;6.418;2023-04-01T05:16:09;4.30;;;2.22;;
36291;SDS011;22327;51.208;6.418;2023-04-01T05:18:35;3.58;;;2.25;;
36291;SDS011;22327;51.208;6.418;2023-04-01T05:21:00;4.32;;;1.98;;
36291;SDS011;22327;51.208;6.418;2023-04-01T05:23:26;4.47;;;2.20;;
36291;SDS011;22327;51.208;6.418;2023-04-01T05:25:51;5.03;;;2.50;;
36291;SDS011;22327;51.208;6.418;2023-04-01T05:28:18;2.92;;;2.15;;
36291;SDS011;22327;51.208;6.418;2023-04-01T05:30:44;3.47;;;2.08;;
36291;SDS011;22327;51.208;6.418;2023-04-01T05:33:11;5.43;;;2.60;;
36291;SDS011;22327;51.208;6.418;2023-04-01T05:35:38;5.18;;;2.30;;
36291;SDS011;22327;51.208;6.418;2023-04-01T05:38:04;4.97;;;2.72;;
36291;SDS011;22327;51.208;6.418;2023-04-01T05:40:30;4.57;;;2.55;;
36291;SDS011;22327;51.208;6.418;2023-04-01T05:42:56;3.00;;;2.45;;
36291;SDS011;22327;51.208;6.418;2023-04-01T05:45:21;4.53;;;2.55;;
36291;SDS011;22327;51.208;6.418;2023-04-01T05:47:47;6.55;;;4.45;;
36291;SDS011;22327;51.208;6.418;2023-04-01T05:50:13;4.70;;;3.00;;
36291;SDS011;22327;51.208;6.418;2023-04-01T05:52:39;4.90;;;2.85;;
36291;SDS011;22327;51.208;6.418;2023-04-01T05:55:05;4.72;;;3.47;;
36291;SDS011;22327;51.208;6.418;2023-04-01T05:57:30;4.93;;;2.88;;
36291;SDS011;22327;51.208;6.418;2023-04-01T05:59:56;4.30;;;2.88;;
36291;SDS011;22327;51.208;6.418;2023-04-01T06:02:22;4.18;;;2.88;;
36291;SDS011;22327;51.208;6.418;2023-04-01T06:04:48;4.47;;;3.10;;
36291;SDS011;22327;51.208;6.418;2023-04-01T06:07:14;3.40;;;2.80;;
36291;SDS011;22327;51.208;6.418;2023-04-01T06:09:41;4.85;;;2.90;;
36291;SDS011;22327;51.208;6.418;2023-04-01T06:15:05;3.45;;;2.35;;
36291;SDS011;22327;51.208;6.418;2023-04-01T06:17:52;3.97;;;2.50;;
36291;SDS011;22327;51.208;6.418;2023-04-01T06:20:32;3.05;;;2.10;;
36291;SDS011;22327;51.208;6.418;2023-04-01T06:23:28;3.90;;;2.63;;
36291;SDS011;22327;51.208;6.418;2023-04-01T06:32:14;2.25;;;1.70;;
36291;SDS011;22327;51.208;6.418;2023-04-01T06:34:45;3.30;;;2.03;;
36291;SDS011;22327;51.208;6.418;2023-04-01T06:48:56;2.35;;;1.85;;
36291;SDS011;22327;51.208;6.418;2023-04-01T06:54:12;3.13;;;1.75;;
36291;SDS011;22327;51.208;6.418;2023-04-01T06:56:43;2.60;;;1.63;;
36291;SDS011;22327;51.208;6.418;2023-04-01T06:59:19;2.40;;;1.80;;
36291;SDS011;22327;51.208;6.418;2023-04-01T07:01:57;2.17;;;1.65;;
36291;SDS011;22327;51.208;6.418;2023-04-01T07:04:43;2.25;;;1.77;;
36291;SDS011;22327;51.208;6.418;2023-04-01T07:07:45;3.70;;;2.40;;
36291;SDS011;22327;51.208;6.418;2023-04-01T07:10:11;2.28;;;1.95;;
36291;SDS011;22327;51.208;6.418;2023-04-01T07:12:49;2.88;;;2.10;;
36291;SDS011;22327;51.208;6.418;2023-04-01T07:17:51;2.95;;;2.63;;
36291;SDS011;22327;51.208;6.418;2023-04-01T07:20:22;3.42;;;2.50;;
36291;SDS011;22327;51.208;6.418;2023-04-01T07:22:53;2.97;;;2.30;;
36291;SDS011;22327;51.208;6.418;2023-04-01T07:25:34;3.58;;;2.50;;
36291;SDS011;22327;51.208;6.418;2023-04-01T07:28:14;4.43;;;3.10;;
36291;SDS011;22327;51.208;6.418;2023-04-01T07:30:49;3.45;;;2.90;;
36291;SDS011;22327;51.208;6.418;2023-04-01T07:33:42;2.47;;;2.17;;
36291;SDS011;22327;51.208;6.418;2023-04-01T07:38:50;3.25;;;2.30;;
36291;SDS011;22327;51.208;6.418;2023-04-01T07:41:45;2.63;;;2.40;;
36291;SDS011;22327;51.208;6.418;2023-04-01T07:44:42;2.47;;;2.28;;
36291;SDS011;22327;51.208;6.418;2023-04-01T07:50:13;2.78;;;2.00;;
36291;SDS011;22327;51.208;6.418;2023-04-01T07:58:42;3.00;;;2.70;;
36291;SDS011;22327;51.208;6.418;2023-04-01T08:01:33;2.35;;;2.15;;
36291;SDS011;22327;51.208;6.418;2023-04-01T08:07:36;2.75;;;2.55;;
36291;SDS011;22327;51.208;6.418;2023-04-01T08:12:51;2.72;;;2.33;;
36291;SDS011;22327;51.208;6.418;2023-04-01T08:15:27;2.90;;;2.20;;
36291;SDS011;22327;51.208;6.418;2023-04-01T08:23:36;2.67;;;2.45;;
36291;SDS011;22327;51.208;6.418;2023-04-01T08:29:12;4.78;;;4.03;;
36291;SDS011;22327;51.208;6.418;2023-04-01T08:34:20;6.00;;;4.93;;
36291;SDS011;22327;51.208;6.418;2023-04-01T08:36:50;5.85;;;5.18;;
36291;SDS011;22327;51.208;6.418;2023-04-01T08:42:04;6.88;;;5.75;;
36291;SDS011;22327;51.208;6.418;2023-04-01T08:47:50;6.82;;;5.53;;
36291;SDS011;22327;51.208;6.418;2023-04-01T09:12:56;9.98;;;7.30;;
36291;SDS011;22327;51.208;6.418;2023-04-01T09:18:24;10.68;;;8.05;;
36291;SDS011;22327;51.208;6.418;2023-04-01T09:24:32;12.15;;;7.85;;
36291;SDS011;22327;51.208;6.418;2023-04-01T09:32:59;10.73;;;8.25;;
36291;SDS011;22327;51.208;6.418;2023-04-01T09:41:18;11.52;;;8.73;;
36291;SDS011;22327;51.208;6.418;2023-04-01T09:44:03;11.73;;;8.93;;
36291;SDS011;22327;51.208;6.418;2023-04-01T09:49:17;11.55;;;8.57;;
36291;SDS011;22327;51.208;6.418;2023-04-01T10:08:47;6.10;;;4.63;;
36291;SDS011;22327;51.208;6.418;2023-04-01T10:14:37;6.05;;;4.90;;
36291;SDS011;22327;51.208;6.418;2023-04-01T10:32:27;5.68;;;5.07;;
36291;SDS011;22327;51.208;6.418;2023-04-01T10:35:09;6.47;;;5.60;;
36291;SDS011;22327;51.208;6.418;2023-04-01T10:38:36;7.00;;;5.93;;
36291;SDS011;22327;51.208;6.418;2023-04-01T10:46:54;9.05;;;7.35;;
36291;SDS011;22327;51.208;6.418;2023-04-01T11:01:27;10.20;;;8.05;;
36291;SDS011;22327;51.208;6.418;2023-04-01T11:07:03;8.90;;;6.75;;
36291;SDS011;22327;51.208;6.418;2023-04-01T11:13:00;6.95;;;5.93;;
36291;SDS011;22327;51.208;6.418;2023-04-01T11:15:57;8.50;;;6.90;;
36291;SDS011;22327;51.208;6.418;2023-04-01T11:19:08;8.85;;;6.47;;
36291;SDS011;22327;51.208;6.418;2023-04-01T11:27:50;11.02;;;8.95;;
36291;SDS011;22327;51.208;6.418;2023-04-01T11:33:20;9.18;;;7.63;;
36291;SDS011;22327;51.208;6.418;2023-04-01T11:41:37;10.90;;;9.20;;
36291;SDS011;22327;51.208;6.418;2023-04-01T11:44:18;12.13;;;9.38;;
36291;SDS011;22327;51.208;6.418;2023-04-01T11:55:04;11.48;;;9.13;;
36291;SDS011;22327;51.208;6.418;2023-04-01T12:11:33;9.50;;;8.00;;
36291;SDS011;22327;51.208;6.418;2023-04-01T12:14:11;9.57;;;7.38;;
36291;SDS011;22327;51.208;6.418;2023-04-01T12:19:53;9.10;;;8.13;;
36291;SDS011;22327;51.208;6.418;2023-04-01T12:22:43;10.80;;;9.13;;
36291;SDS011;22327;51.208;6.418;2023-04-01T12:28:25;11.32;;;8.73;;
36291;SDS011;22327;51.208;6.418;2023-04-01T12:33:52;8.73;;;7.78;;
36291;SDS011;22327;51.208;6.418;2023-04-01T12:36:30;9.40;;;7.85;;
36291;SDS011;22327;51.208;6.418;2023-04-01T12:50:43;5.82;;;5.20;;
36291;SDS011;22327;51.208;6.418;2023-04-01T12:53:47;6.50;;;5.90;;
36291;SDS011;22327;51.208;6.418;2023-04-01T13:10:51;4.70;;;4.30;;
36291;SDS011;22327;51.208;6.418;2023-04-01T13:19:02;5.00;;;4.40;;
36291;SDS011;22327;51.208;6.418;2023-04-01T13:32:32;4.30;;;3.90;;
36291;SDS011;22327;51.208;6.418;2023-04-01T13:35:10;4.35;;;3.92;;
36291;SDS011;22327;51.208;6.418;2023-04-01T13:38:10;3.95;;;3.35;;
36291;SDS011;22327;51.208;6.418;2023-04-01T13:43:45;3.60;;;3.20;;
36291;SDS011;22327;51.208;6.418;2023-04-01T13:49:05;3.83;;;3.53;;
36291;SDS011;22327;51.208;6.418;2023-04-01T13:57:37;2.95;;;2.75;;
36291;SDS011;22327;51.208;6.418;2023-04-01T14:11:10;2.65;;;2.45;;
36291;SDS011;22327;51.208;6.418;2023-04-01T14:14:13;3.50;;;2.90;;
36291;SDS011;22327;51.208;6.418;2023-04-01T14:19:52;3.67;;;3.22;;
36291;SDS011;22327;51.208;6.418;2023-04-01T14:22:46;3.65;;;3.17;;
36291;SDS011;22327;51.208;6.418;2023-04-01T14:25:36;3.40;;;3.10;;
36291;SDS011;22327;51.208;6.418;2023-04-01T14:31:04;3.08;;;2.85;;
36291;SDS011;22327;51.208;6.418;2023-04-01T14:33:43;3.30;;;3.00;;
36291;SDS011;22327;51.208;6.418;2023-04-01T14:47:50;3.20;;;2.80;;
36291;SDS011;22327;51.208;6.418;2023-04-01T14:50:29;4.18;;;3.28;;
36291;SDS011;22327;51.208;6.418;2023-04-01T14:55:50;4.38;;;4.07;;
36291;SDS011;22327;51.208;6.418;2023-04-01T14:58:21;3.70;;;3.40;;
36291;SDS011;22327;51.208;6.418;2023-04-01T15:03:38;3.58;;;3.28;;
36291;SDS011;22327;51.208;6.418;2023-04-01T15:08:55;4.10;;;3.58;;
36291;SDS011;22327;51.208;6.418;2023-04-01T15:11:41;4.93;;;4.47;;
36291;SDS011;22327;51.208;6.418;2023-04-01T15:22:28;5.53;;;5.03;;
36291;SDS011;22327;51.208;6.418;2023-04-01T15:25:18;5.17;;;4.67;;
36291;SDS011;22327;51.208;6.418;2023-04-01T15:30:58;6.07;;;5.13;;
36291;SDS011;22327;51.208;6.418;2023-04-01T15:33:40;5.63;;;5.10;;
36291;SDS011;22327;51.208;6.418;2023-04-01T15:39:20;7.57;;;6.00;;
36291;SDS011;22327;51.208;6.418;2023-04-01T15:42:27;7.20;;;5.82;;
36291;SDS011;22327;51.208;6.418;2023-04-01T15:47:44;6.47;;;5.78;;
36291;SDS011;22327;51.208;6.418;2023-04-01T15:55:57;6.30;;;5.53;;
36291;SDS011;22327;51.208;6.418;2023-04-01T15:58:38;6.68;;;5.97;;
36291;SDS011;22327;51.208;6.418;2023-04-01T16:04:16;7.18;;;5.93;;
36291;SDS011;22327;51.208;6.418;2023-04-01T16:07:15;6.90;;;6.20;;
36291;SDS011;22327;51.208;6.418;2023-04-01T16:12:47;7.25;;;6.55;;
36291;SDS011;22327;51.208;6.418;2023-04-01T16:21:01;8.68;;;7.78;;
36291;SDS011;22327;51.208;6.418;2023-04-01T16:25:58;8.90;;;7.40;;
36291;SDS011;22327;51.208;6.418;2023-04-01T16:28:48;7.47;;;5.78;;
36291;SDS011;22327;51.208;6.418;2023-04-01T16:34:16;6.60;;;5.70;;
36291;SDS011;22327;51.208;6.418;2023-04-01T16:36:47;6.28;;;5.38;;
36291;SDS011;22327;51.208;6.418;2023-04-01T16:44:31;4.97;;;4.47;;
36291;SDS011;22327;51.208;6.418;2023-04-01T16:47:14;8.57;;;6.03;;
36291;SDS011;22327;51.208;6.418;2023-04-01T16:49:51;5.63;;;5.00;;
36291;SDS011;22327;51.208;6.418;2023-04-01T16:52:42;4.65;;;3.72;;
36291;SDS011;22327;51.208;6.418;2023-04-01T16:55:35;3.70;;;3.33;;
36291;SDS011;22327;51.208;6.418;2023-04-01T16:58:10;3.50;;;3.20;;
36291;SDS011;22327;51.208;6.418;2023-04-01T17:00:51;4.13;;;3.63;;
36291;SDS011;22327;51.208;6.418;2023-04-01T17:03:36;3.83;;;3.40;;
36291;SDS011;22327;51.208;6.418;2023-04-01T17:09:03;9.30;;;7.28;;
36291;SDS011;22327;51.208;6.418;2023-04-01T17:11:35;7.05;;;5.95;;
36291;SDS011;22327;51.208;6.418;2023-04-01T17:14:20;5.40;;;4.68;;
36291;SDS011;22327;51.208;6.418;2023-04-01T17:28:32;4.60;;;4.20;;
36291;SDS011;22327;51.208;6.418;2023-04-01T17:34:13;3.83;;;3.42;;
36291;SDS011;22327;51.208;6.418;2023-04-01T17:44:49;4.90;;;4.30;;
36291;SDS011;22327;51.208;6.418;2023-04-01T17:47:28;5.68;;;3.58;;
36291;SDS011;22327;51.208;6.418;2023-04-01T17:53:01;3.85;;;3.33;;
36291;SDS011;22327;51.208;6.418;2023-04-01T17:58:41;3.33;;;2.80;;
36291;SDS011;22327;51.208;6.418;2023-04-01T18:06:59;4.10;;;3.50;;
36291;SDS011;22327;51.208;6.418;2023-04-01T18:14:54;4.43;;;3.88;;
36291;SDS011;22327;51.208;6.418;2023-04-01T18:20:11;7.40;;;5.45;;
36291;SDS011;22327;51.208;6.418;2023-04-01T18:25:40;10.75;;;7.82;;
36291;SDS011;22327;51.208;6.418;2023-04-01T18:31:39;10.60;;;7.78;;
36291;SDS011;22327;51.208;6.418;2023-04-01T18:34:02;11.68;;;8.13;;
36291;SDS011;22327;51.208;6.418;2023-04-01T18:39:13;9.13;;;6.85;;
36291;SDS011;22327;51.208;6.418;2023-04-01T18:51:09;13.43;;;9.33;;
36291;SDS011;22327;51.208;6.418;2023-04-01T18:53:43;13.55;;;9.35;;
36291;SDS011;22327;51.208;6.418;2023-04-01T18:59:05;17.10;;;11.68;;
36291;SDS011;22327;51.208;6.418;2023-04-01T19:01:52;14.23;;;10.00;;
36291;SDS011;22327;51.208;6.418;2023-04-01T19:04:39;18.70;;;11.93;;
36291;SDS011;22327;51.208;6.418;2023-04-01T19:10:12;14.00;;;9.60;;
36291;SDS011;22327;51.208;6.418;2023-04-01T19:18:06;14.52;;;8.52;;
36291;SDS011;22327;51.208;6.418;2023-04-01T19:20:50;14.77;;;9.13;;
36291;SDS011;22327;51.208;6.418;2023-04-01T19:23:36;15.52;;;9.48;;
36291;SDS011;22327;51.208;6.418;2023-04-01T19:26:23;18.33;;;10.18;;
36291;SDS011;22327;51.208;6.418;2023-04-01T19:29:04;18.73;;;10.82;;
36291;SDS011;22327;51.208;6.418;2023-04-01T19:36:56;18.83;;;9.45;;
36291;SDS011;22327;51.208;6.418;2023-04-01T19:39:48;16.48;;;9.23;;
36291;SDS011;22327;51.208;6.418;2023-04-01T19:45:04;16.58;;;9.68;;
36291;SDS011;22327;51.208;6.418;2023-04-01T19:51:00;16.17;;;8.67;;
36291;SDS011;22327;51.208;6.418;2023-04-01T19:53:44;16.38;;;7.97;;
36291;SDS011;22327;51.208;6.418;2023-04-01T19:56:43;20.10;;;9.75;;
36291;SDS011;22327;51.208;6.418;2023-04-01T20:04:54;18.08;;;9.23;;
36291;SDS011;22327;51.208;6.418;2023-04-01T20:07:28;21.25;;;9.50;;
36291;SDS011;22327;51.208;6.418;2023-04-01T20:10:22;21.77;;;10.38;;
36291;SDS011;22327;51.208;6.418;2023-04-01T20:15:47;16.42;;;9.38;;
36291;SDS011;22327;51.208;6.418;2023-04-01T20:18:34;14.90;;;8.27;;
36291;SDS011;22327;51.208;6.418;2023-04-01T20:23:40;11.90;;;7.50;;
36291;SDS011;22327;51.208;6.418;2023-04-01T20:28:42;12.98;;;7.43;;
36291;SDS011;22327;51.208;6.418;2023-04-01T20:31:27;9.48;;;5.93;;
36291;SDS011;22327;51.208;6.418;2023-04-01T20:34:15;12.98;;;7.82;;
36291;SDS011;22327;51.208;6.418;2023-04-01T20:42:22;12.05;;;8.10;;
36291;SDS011;22327;51.208;6.418;2023-04-01T20:44:56;9.95;;;6.50;;
36291;SDS011;22327;51.208;6.418;2023-04-01T20:50:51;6.32;;;3.88;;
36291;SDS011;22327;51.208;6.418;2023-04-01T21:10:24;4.93;;;4.10;;
36291;SDS011;22327;51.208;6.418;2023-04-01T21:15:33;5.22;;;3.97;;
36291;SDS011;22327;51.208;6.418;2023-04-01T21:18:29;7.72;;;5.72;;
36291;SDS011;22327;51.208;6.418;2023-04-01T21:21:11;5.93;;;4.57;;
36291;SDS011;22327;51.208;6.418;2023-04-01T21:23:56;7.90;;;6.35;;
36291;SDS011;22327;51.208;6.418;2023-04-01T21:26:47;6.88;;;5.07;;
36291;SDS011;22327;51.208;6.418;2023-04-01T21:34:42;5.80;;;4.55;;
36291;SDS011;22327;51.208;6.418;2023-04-01T22:07:24;5.40;;;4.57;;
36291;SDS011;22327;51.208;6.418;2023-04-01T22:12:46;4.82;;;3.83;;
36291;SDS011;22327;51.208;6.418;2023-04-01T22:17:56;6.35;;;4.85;;
36291;SDS011;22327;51.208;6.418;2023-04-01T22:20:35;7.28;;;4.85;;
36291;SDS011;22327;51.208;6.418;2023-04-01T22:28:24;3.97;;;3.13;;
36291;SDS011;22327;51.208;6.418;2023-04-01T22:31:02;3.78;;;3.25;;
36291;SDS011;22327;51.208;6.418;2023-04-01T22:39:56;9.65;;;5.82;;
36291;SDS011;22327;51.208;6.418;2023-04-01T22:47:32;6.05;;;4.35;;
36291;SDS011;22327;51.208;6.418;2023-04-01T22:50:35;6.72;;;4.88;;
36291;SDS011;22327;51.208;6.418;2023-04-01T22:55:40;6.80;;;4.70;;
36291;SDS011;22327;51.208;6.418;2023-04-01T22:58:12;5.40;;;4.05;;
36291;SDS011;22327;51.208;6.418;2023-04-01T23:00:43;4.53;;;2.92;;
36291;SDS011;22327;51.208;6.418;2023-04-01T23:03:17;7.93;;;5.40;;
36291;SDS011;22327;51.208;6.418;2023-04-01T23:05:48;7.03;;;4.70;;
36291;SDS011;22327;51.208;6.418;2023-04-01T23:11:20;7.00;;;5.53;;
36291;SDS011;22327;51.208;6.418;2023-04-01T23:13:56;5.75;;;4.35;;
36291;SDS011;22327;51.208;6.418;2023-04-01T23:16:35;9.40;;;6.05;;
36291;SDS011;22327;51.208;6.418;2023-04-01T23:19:16;9.43;;;6.75;;
36291;SDS011;22327;51.208;6.418;2023-04-01T23:21:53;8.70;;;6.15;;
36291;SDS011;22327;51.208;6.418;2023-04-01T23:24:45;9.15;;;6.40;;
36291;SDS011;22327;51.208;6.418;2023-04-01T23:27:19;6.63;;;4.68;;
36291;SDS011;22327;51.208;6.418;2023-04-01T23:35:49;9.02;;;6.40;;
36291;SDS011;22327;51.208;6.418;2023-04-01T23:38:41;8.02;;;5.32;;
36291;SDS011;22327;51.208;6.418;2023-04-01T23:41:27;5.55;;;3.42;;
36291;SDS011;22327;51.208;6.418;2023-04-01T23:44:00;8.10;;;5.28;;
36291;SDS011;22327;51.208;6.418;2023-04-01T23:46:33;7.78;;;5.47;;
36291;SDS011;22327;51.208;6.418;2023-04-01T23:49:00;6.40;;;4.90;;
36291;SDS011;22327;51.208;6.418;2023-04-01T23:51:29;6.10;;;4.22;;
36291;SDS011;22327;51.208;6.418;2023-04-01T23:54:09;4.65;;;3.42;;
36291;SDS011;22327;51.208;6.418;2023-04-01T23:56:43;4.43;;;2.92;;
36291;SDS011;22327;51.208;6.418;2023-04-01T23:59:18;8.05;;;5.88;;
